Latest Weather Observations for Sydney - Observatory Hill

IDN60801

Issued at 7:35 am EST Wednesday 1 October 2014 (issued every 30 minutes, with the page automatically refreshed every 10 minutes)

About weather observations | Map of weather stations | Latest weather observations for NSW | Other Formats
Station Details ID: 066062 Name: SYDNEY (OBSERVATORY HILL) Lat: -33.86 Lon: 151.21 Height: 39.0 m
Data from the previous 72 hours. | See also: Recent months at Sydney - Observatory Hill

* Apparent temperature (App Temp) for Sydney - Observatory Hill is calculated using temperature observations collected at Sydney - Observatory Hill and wind observations collected at Fort Denison, as wind observations are not currently provided for Sydney - Observatory Hill.

Date/Time
EST
Temp
°C
App
Temp
°C
Dew
Point
Rel
Hum
%
Delta-T
°C
Wind Press
QNH
hPa
Press
MSL
hPa
Rain
since 9 am
mm
Dir
 
Spd
km/h
Gust
km/h
Spd
kts
Gust
kts
01/07:30am 16.4 9.2 -1.7 29 7.5 SSW 26 - 14 - 1016.7 1016.7 0.0
01/07:00am 16.1 7.8 -1.9 29 7.4 WSW 32 - 17 - 1016.0 1016.0 0.0
01/06:30am 15.8 7.5 -1.7 30 7.2 WSW 32 - 17 - 1015.4 1015.4 0.0
01/06:00am 16.0 7.3 -3.0 27 7.6 SW 33 - 18 - 1014.9 1014.9 0.0
01/05:30am 16.7 8.6 -2.9 26 7.9 SW 30 - 16 - 1014.1 1014.1 0.0
01/05:00am 17.8 9.9 -1.4 27 8.1 WSW 30 - 16 - 1012.9 1012.9 0.0
01/04:30am 17.9 12.1 2.2 35 7.1 WSW 22 - 12 - 1011.9 1011.9 0.0
01/04:00am 18.5 12.4 2.8 35 7.3 SSW 24 - 13 - 1011.7 1011.7 0.0
01/03:30am 19.5 13.6 4.0 36 7.4 SSW 24 - 13 - 1010.8 1010.8 0.0
01/03:00am 20.5 13.0 3.7 33 8.0 SSW 32 - 17 - 1010.5 1010.5 0.0
01/02:30am 22.8 17.2 1.2 24 10.0 SW 20 - 11 - 1009.3 1009.3 0.0
01/02:00am 23.8 18.6 0.2 21 10.8 WSW 17 - 9 - 1008.4 1008.4 0.0
01/01:30am 23.5 18.4 0.6 22 10.5 WNW 17 - 9 - 1007.7 1007.7 0.0
01/01:00am 24.2 19.5 1.2 22 10.8 WNW 15 - 8 - 1007.4 1007.4 0.0
01/12:30am 24.6 20.1 2.1 23 10.7 W 15 - 8 - 1007.3 1007.3 0.0
01/12:00am 24.6 19.5 3.3 25 10.4 NW 19 - 10 - 1007.4 1007.4 0.0
 
Date/Time
EST
Temp
°C
App
Temp
°C
Dew
Point
Rel
Hum
%
Delta-T
°C
Wind Press
QNH
hPa
Press
MSL
hPa
Rain
since 9 am
mm
Dir
 
Spd
km/h
Gust
km/h
Spd
kts
Gust
kts
30/11:30pm 24.7 19.6 3.9 26 10.3 NW 20 - 11 - 1007.5 1007.5 0.0
30/11:00pm 24.8 19.9 5.1 28 10.0 WNW 20 - 11 - 1007.6 1007.6 0.0
30/10:30pm 24.2 22.0 5.5 30 9.5 W 6 - 3 - 1007.9 1007.9 0.0
30/10:00pm 24.3 22.0 5.6 30 9.5 ESE 7 - 4 - 1007.6 1007.6 0.0
30/09:30pm 24.6 21.0 4.9 28 9.9 N 13 - 7 - 1007.4 1007.4 0.0
30/09:00pm 25.1 20.6 4.3 26 10.4 NNW 17 - 9 - 1007.6 1007.6 0.0
30/08:30pm 26.4 22.5 3.6 23 11.3 NNW 13 - 7 - 1007.6 1007.6 0.0
30/08:00pm 27.2 21.5 3.0 21 12.0 NNW 22 - 12 - 1007.6 1007.6 0.0
30/07:30pm 27.1 22.9 3.6 22 11.7 NW 15 - 8 - 1007.7 1007.7 0.0
30/07:00pm 29.0 23.6 2.3 18 13.2 NW 20 - 11 - 1007.6 1007.6 0.0
30/06:30pm 28.4 23.3 4.0 21 12.4 NW 20 - 11 - 1007.4 1007.4 0.0
30/06:00pm 29.2 24.1 3.2 19 13.1 NW 19 - 10 - 1007.0 1007.0 0.0
30/05:30pm 30.9 25.5 2.2 16 14.3 NW 20 - 11 - 1006.9 1006.9 0.0
30/05:00pm 31.1 24.7 3.2 17 14.2 NW 26 - 14 - 1006.9 1006.9 0.0
30/04:30pm 32.0 25.0 2.1 15 15.0 NW 28 - 15 - 1006.9 1006.9 0.0
30/04:00pm 31.9 24.8 3.8 17 14.5 NW 30 - 16 - 1007.0 1007.0 0.0
30/03:30pm 33.2 26.0 3.1 15 15.5 NW 30 - 16 - 1007.2 1007.2 0.0
30/03:00pm 32.7 26.4 3.6 16 15.1 NW 26 - 14 - 1007.2 1007.2 0.0
30/02:30pm 31.9 27.5 4.6 18 14.3 NNE 17 - 9 - 1007.8 1007.8 0.0
30/02:00pm 29.6 26.5 11.6 33 10.5 NE 19 - 10 - 1008.5 1008.5 0.0
30/01:30pm 29.1 26.0 12.1 35 9.9 NE 20 - 11 - 1008.9 1008.9 0.0
30/01:00pm 28.6 25.0 9.8 31 10.6 NE 19 - 10 - 1009.5 1009.5 0.0
30/12:30pm 30.0 26.1 9.5 28 11.5 N 20 - 11 - 1010.1 1010.1 0.0
30/12:00pm 27.6 23.3 9.4 32 10.1 N 22 - 12 - 1010.8 1010.8 0.0
30/11:30am 27.7 23.7 8.1 29 10.6 N 19 - 10 - 1011.4 1011.4 0.0
30/11:00am 27.2 22.7 7.1 28 10.7 NNW 20 - 11 - 1012.0 1012.0 0.0
30/10:30am 27.8 23.1 7.6 28 10.9 NNW 22 - 12 - 1012.5 1012.5 0.0
30/10:00am 28.2 23.2 8.0 28 11.0 NNW 24 - 13 - 1012.9 1012.9 0.0
30/09:30am 25.3 24.6 10.0 38 8.5 NNE 4 - 2 - 1013.3 1013.3 0.0
30/09:00am 23.7 23.4 10.0 42 7.5 SE 2 - 1 - 1013.7 1013.7 0.0
30/08:30am 23.1 22.3 10.9 46 6.8 ESE 6 - 3 - 1013.8 1013.8 0.0
30/08:00am 21.9 22.0 12.7 56 5.2 SE 4 - 2 - 1013.6 1013.6 0.0
30/07:30am 19.7 21.1 15.4 76 2.5 NE 2 - 1 - 1013.5 1013.5 0.0
30/07:00am 17.5 17.7 14.6 83 1.7 WNW 7 - 4 - 1013.4 1013.4 0.0
30/06:30am 16.9 17.2 14.5 86 1.4 W 6 - 3 - 1013.4 1013.4 0.0
30/06:00am 16.7 17.3 14.2 85 1.4 NNW 4 - 2 - 1013.1 1013.1 0.0
30/05:30am 16.7 17.3 14.3 86 1.4 N 4 - 2 - 1012.8 1012.8 0.0
30/05:00am 16.8 16.5 14.3 85 1.4 W 9 - 5 - 1012.7 1012.7 0.0
30/04:30am 17.0 18.0 14.3 84 1.5 WSW 2 - 1 - 1012.7 1012.7 0.0
30/04:00am 17.7 18.8 14.6 82 1.8 E 2 - 1 - 1012.8 1012.8 0.0
30/03:30am 17.9 19.1 15.0 83 1.7 N 2 - 1 - 1012.9 1012.9 0.0
30/03:00am 17.7 18.6 15.0 84 1.6 E 4 - 2 - 1013.0 1013.0 0.0
30/02:30am 17.8 18.6 14.7 82 1.8 E 4 - 2 - 1013.3 1013.3 0.0
30/02:00am 17.8 18.6 14.9 83 1.7 ENE 4 - 2 - 1013.4 1013.4 0.0
30/01:30am 17.7 18.5 14.8 83 1.7 N 4 - 2 - 1013.8 1013.8 0.0
30/01:00am 18.0 18.8 14.9 82 1.8 NNE 4 - 2 - 1014.1 1014.1 0.0
30/12:30am 18.2 19.4 14.9 81 1.9 NE 2 - 1 - 1014.5 1014.5 0.0
30/12:00am 18.2 19.3 14.5 79 2.1 NE 2 - 1 - 1014.6 1014.6 0.0
 
Date/Time
EST
Temp
°C
App
Temp
°C
Dew
Point
Rel
Hum
%
Delta-T
°C
Wind Press
QNH
hPa
Press
MSL
hPa
Rain
since 9 am
mm
Dir
 
Spd
km/h
Gust
km/h
Spd
kts
Gust
kts
29/11:30pm 18.6 18.9 14.5 77 2.4 ENE 6 - 3 - 1014.6 1014.6 0.0
29/11:00pm 18.9 19.2 14.4 75 2.6 E 6 - 3 - 1015.1 1015.1 0.0
29/10:30pm 18.6 19.1 13.9 74 2.7 ESE 4 - 2 - 1015.0 1015.0 0.0
29/10:00pm 19.1 20.2 13.5 70 3.2 CALM 0 - 0 - 1015.0 1015.0 0.0
29/09:30pm 19.6 19.9 13.3 67 3.6 SSW 4 - 2 - 1015.1 1015.1 0.0
29/09:00pm 20.2 19.5 13.2 64 4.0 S 9 - 5 - 1015.1 1015.1 0.0
29/08:30pm 20.8 20.1 13.3 62 4.3 S 9 - 5 - 1014.9 1014.9 0.0
29/08:00pm 22.0 19.5 12.3 54 5.5 SE 17 - 9 - 1014.7 1014.7 0.0
29/07:30pm 23.6 20.3 11.6 47 6.8 S 20 - 11 - 1014.2 1014.2 0.0
29/07:00pm 27.6 25.2 5.2 24 11.5 ESE 7 - 4 - 1013.5 1013.5 0.0
29/06:30pm 28.0 25.7 5.0 23 11.8 WNW 6 - 3 - 1012.9 1012.9 0.0
29/06:00pm 28.0 25.2 5.0 23 11.8 WNW 9 - 5 - 1012.6 1012.6 0.0
29/05:30pm 28.9 24.6 5.1 22 12.3 W 17 - 9 - 1012.2 1012.2 0.0
29/05:00pm 29.3 23.9 4.7 21 12.7 WNW 22 - 12 - 1011.8 1011.8 0.0
29/04:30pm 29.9 24.9 4.5 20 13.1 WNW 20 - 11 - 1011.4 1011.4 0.0
29/04:00pm 31.3 27.2 4.2 18 14.0 W 15 - 8 - 1011.2 1011.2 0.0
29/03:30pm 31.7 27.3 4.5 18 14.2 W 17 - 9 - 1011.0 1011.0 0.0
29/03:00pm 32.3 28.2 4.2 17 14.7 WNW 15 - 8 - 1011.2 1011.2 0.0
29/02:30pm 32.1 27.2 2.2 15 15.0 WNW 17 - 9 - 1011.1 1011.1 0.0
29/02:00pm 32.4 28.1 3.4 16 14.9 W 15 - 8 - 1011.6 1011.6 0.0
29/01:30pm 32.4 28.0 6.6 20 14.0 WNW 19 - 10 - 1012.0 1012.0 0.0
29/01:00pm 31.7 29.0 7.4 22 13.3 W 11 - 6 - 1012.4 1012.4 0.0
29/12:30pm 31.2 28.8 7.0 22 13.1 W 9 - 5 - 1012.8 1012.8 0.0
29/12:00pm 29.9 26.6 6.5 23 12.5 W 13 - 7 - 1013.2 1013.2 0.0
29/11:30am 29.4 28.1 6.1 23 12.3 E 2 - 1 - 1013.7 1013.7 0.0
29/11:00am 28.7 26.4 5.5 23 12.1 E 7 - 4 - 1014.0 1014.0 0.0
29/10:30am 28.0 26.0 6.2 25 11.5 N 6 - 3 - 1014.2 1014.2 0.0
29/10:00am 27.1 23.8 6.5 27 10.8 NNE 13 - 7 - 1014.5 1014.5 0.0
29/09:30am 26.6 22.9 6.1 27 10.7 N 15 - 8 - 1014.5 1014.5 0.0
29/09:00am 25.2 21.0 5.9 29 9.9 N 17 - 9 - 1014.6 1014.6 0.0
29/08:30am 24.3 19.2 6.1 31 9.3 NNW 22 - 12 - 1014.8 1014.8 0.0
29/08:00am 22.0 16.8 5.4 34 8.3 NNW 22 - 12 - 1014.5 1014.5 0.0
29/07:30am 20.3 14.7 5.5 38 7.3 NNW 24 - 13 - 1014.3 1014.3 0.0
29/07:00am 20.8 15.2 5.2 36 7.7 NNW 24 - 13 - 1014.2 1014.2 0.0
29/06:30am 19.6 13.7 5.6 40 6.9 NNW 26 - 14 - 1014.2 1014.2 0.0
29/06:00am 19.0 13.0 5.1 40 6.8 NNW 26 - 14 - 1013.9 1013.9 0.0
29/05:30am 18.3 13.4 5.2 42 6.3 NNW 20 - 11 - 1013.7 1013.7 0.0
29/05:00am 17.8 13.5 5.4 44 6.0 NW 17 - 9 - 1013.5 1013.5 0.0
29/04:30am 17.8 13.9 5.4 44 6.0 NW 15 - 8 - 1013.3 1013.3 0.0
29/04:00am 17.8 15.7 6.0 46 5.8 NNW 6 - 3 - 1013.4 1013.4 0.0
29/03:30am 17.5 13.9 6.7 49 5.4 NW 15 - 8 - 1013.4 1013.4 0.0
29/03:00am 17.1 12.8 6.9 51 5.1 NNW 19 - 10 - 1013.7 1013.7 0.0
29/02:30am 16.8 12.7 7.7 55 4.6 NNW 19 - 10 - 1014.2 1014.2 0.0
29/02:00am 17.0 16.2 8.2 56 4.5 N 2 - 1 - 1014.8 1014.8 0.0
29/01:30am 17.1 15.8 9.3 60 4.1 ESE 6 - 3 - 1015.0 1015.0 0.0
29/01:00am 17.1 16.6 9.5 61 4.0 ESE 2 - 1 - 1015.0 1015.0 0.0
29/12:30am 17.0 16.6 9.9 63 3.7 N 2 - 1 - 1015.3 1015.3 0.0
29/12:00am 17.3 16.3 10.9 66 3.4 ENE 7 - 4 - 1015.8 1015.8 0.0
 
Date/Time
EST
Temp
°C
App
Temp
°C
Dew
Point
Rel
Hum
%
Delta-T
°C
Wind Press
QNH
hPa
Press
MSL
hPa
Rain
since 9 am
mm
Dir
 
Spd
km/h
Gust
km/h
Spd
kts
Gust
kts
28/11:30pm 17.3 16.5 10.9 66 3.4 E 6 - 3 - 1016.3 1016.3 0.0
28/11:00pm 17.6 16.5 10.7 64 3.7 E 7 - 4 - 1016.4 1016.4 0.0
28/10:30pm 17.9 17.9 11.0 64 3.7 ENE 2 - 1 - 1016.6 1016.6 0.0
28/10:00pm 18.1 17.7 11.0 63 3.8 ENE 4 - 2 - 1016.7 1016.7 0.0
28/09:30pm 17.9 15.8 11.0 64 3.7 NNE 13 - 7 - 1016.6 1016.6 0.0
28/09:00pm 18.3 15.2 11.6 65 3.7 N 19 - 10 - 1016.6 1016.6 0.0
28/08:30pm 18.4 15.1 11.5 64 3.8 NNE 20 - 11 - 1016.6 1016.6 0.0
28/08:00pm 18.5 13.2 11.3 63 3.9 NNE 30 - 16 - 1016.3 1016.3 0.0
28/07:30pm 18.7 13.4 11.3 62 4.0 NNE 30 - 16 - 1016.0 1016.0 0.0
28/07:00pm 18.7 12.9 11.5 63 3.9 NNE 33 - 18 - 1015.7 1015.7 0.0
28/06:30pm 18.9 13.6 12.4 66 3.6 NNE 32 - 17 - 1015.6 1015.6 0.0
28/06:00pm 19.0 13.9 11.8 63 4.0 NNE 30 - 16 - 1015.6 1015.6 0.0
28/05:30pm 19.3 14.3 12.1 63 4.0 NNE 30 - 16 - 1015.6 1015.6 0.0
28/05:00pm 19.7 15.8 12.0 61 4.3 NE 24 - 13 - 1015.7 1015.7 0.0
28/04:30pm 20.2 16.2 11.7 58 4.7 NE 24 - 13 - 1015.9 1015.9 0.0
28/04:00pm 20.6 15.9 10.7 53 5.4 NNE 26 - 14 - 1016.0 1016.0 0.0
28/03:30pm 21.1 16.9 11.2 53 5.5 NE 24 - 13 - 1015.9 1015.9 0.0
28/03:00pm 21.2 16.8 10.4 50 5.9 NE 24 - 13 - 1016.2 1016.2 0.0
28/02:30pm 21.7 17.2 10.2 48 6.3 NE 24 - 13 - 1016.5 1016.5 0.0
28/02:00pm 21.9 17.5 10.4 48 6.3 NE 24 - 13 - 1016.9 1016.9 0.0
28/01:30pm 21.7 17.0 10.8 50 6.0 NE 26 - 14 - 1017.4 1017.4 0.0
28/01:00pm 21.7 17.4 10.8 50 6.0 NE 24 - 13 - 1018.0 1018.0 0.0
28/12:30pm 21.6 17.6 10.4 49 6.1 NE 22 - 12 - 1018.5 1018.5 0.0
28/12:00pm 22.2 18.6 10.4 47 6.5 NE 20 - 11 - 1019.0 1019.0 0.0
28/11:30am 23.3 18.6 6.1 33 8.8 ENE 20 - 11 - 1019.6 1019.6 0.0
28/11:00am 23.6 20.9 7.3 35 8.5 NNW 11 - 6 - 1020.4 1020.3 0.0
28/10:30am 22.6 19.3 8.0 39 7.7 NNW 15 - 8 - 1021.0 1020.9 0.0
28/10:00am 22.0 18.2 7.4 39 7.5 NNW 17 - 9 - 1021.3 1021.2 0.0
28/09:30am 21.2 17.4 9.1 46 6.4 N 19 - 10 - 1021.7 1021.6 0.0
28/09:00am 20.4 17.1 10.8 54 5.2 N 19 - 10 - 1022.0 1021.9 0.2
28/08:30am 18.4 17.2 10.3 59 4.3 W 7 - 4 - 1021.9 1021.8 0.2
28/08:00am 16.8 14.6 9.5 62 3.8 W 11 - 6 - 1022.0 1021.9 0.2

Other Formats:

Comma delimited format used in spreadsheet applications
http://www.bom.gov.au/fwo/IDN60801/IDN60801.94768.axf

JavaScript Object Notation format (JSON) in row-major order
http://www.bom.gov.au/fwo/IDN60801/IDN60801.94768.json